createdAt,value
2017-01-08T00:00:27.323Z,1020.55
2017-01-08T00:01:27.295Z,1020.51
2017-01-08T00:02:27.273Z,1020.54
2017-01-08T00:03:27.244Z,1020.59
2017-01-08T00:04:27.215Z,1020.63
2017-01-08T00:05:27.195Z,1020.58
2017-01-08T00:06:27.173Z,1020.58
2017-01-08T00:07:27.136Z,1020.57
2017-01-08T00:08:27.110Z,1020.48
2017-01-08T00:09:27.083Z,1020.54
2017-01-08T00:10:27.063Z,1020.48
2017-01-08T00:11:27.034Z,1020.48
2017-01-08T00:12:27.003Z,1020.45
2017-01-08T00:13:26.980Z,1020.44
2017-01-08T00:14:26.961Z,1020.44
2017-01-08T00:15:26.932Z,1020.44
2017-01-08T00:16:26.898Z,1020.51
2017-01-08T00:17:26.893Z,1020.48
2017-01-08T00:18:26.850Z,1020.53
2017-01-08T00:19:26.818Z,1020.51
2017-01-08T00:20:26.798Z,1020.47
2017-01-08T00:21:26.766Z,1020.43
2017-01-08T00:22:26.739Z,1020.42
2017-01-08T00:23:26.713Z,1020.41
2017-01-08T00:24:26.690Z,1020.37
2017-01-08T00:25:26.664Z,1020.42
2017-01-08T00:26:26.635Z,1020.45
2017-01-08T00:27:26.606Z,1020.44
2017-01-08T00:28:26.585Z,1020.4
2017-01-08T00:29:26.552Z,1020.37
2017-01-08T00:30:26.532Z,1020.31
2017-01-08T00:31:26.515Z,1020.32
2017-01-08T00:32:26.479Z,1020.3
2017-01-08T00:33:26.454Z,1020.34
2017-01-08T00:34:26.437Z,1020.32
2017-01-08T00:35:26.399Z,1020.34
2017-01-08T00:36:26.369Z,1020.39
2017-01-08T00:37:26.355Z,1020.47
2017-01-08T00:38:26.321Z,1020.42
2017-01-08T00:39:26.294Z,1020.45
2017-01-08T00:40:26.268Z,1020.42
2017-01-08T00:41:26.238Z,1020.41
2017-01-08T00:42:26.215Z,1020.39
2017-01-08T00:43:26.185Z,1020.41
2017-01-08T00:44:26.159Z,1020.4
2017-01-08T00:45:26.134Z,1020.43
2017-01-08T00:46:26.108Z,1020.43
2017-01-08T00:47:26.128Z,1020.45
2017-01-08T00:48:26.053Z,1020.44
2017-01-08T00:49:26.033Z,1020.41
2017-01-08T00:50:26.002Z,1020.45
2017-01-08T00:51:25.977Z,1020.48
2017-01-08T00:52:25.950Z,1020.48
2017-01-08T00:53:25.976Z,1020.46
2017-01-08T00:54:25.898Z,1020.45
2017-01-08T00:55:25.869Z,1020.48
2017-01-08T00:56:25.854Z,1020.51
2017-01-08T00:57:25.818Z,1020.54
2017-01-08T00:58:25.794Z,1020.54
2017-01-08T00:59:25.767Z,1020.58
2017-01-08T01:00:25.746Z,1020.57
2017-01-08T01:01:25.711Z,1020.56
2017-01-08T01:02:25.685Z,1020.57
2017-01-08T01:03:25.673Z,1020.51
2017-01-08T01:04:25.634Z,1020.5
2017-01-08T01:05:25.614Z,1020.51
2017-01-08T01:06:25.580Z,1020.41
2017-01-08T01:07:25.559Z,1020.47
2017-01-08T01:08:25.529Z,1020.46
2017-01-08T01:09:25.503Z,1020.41
2017-01-08T01:10:25.481Z,1020.45
2017-01-08T01:11:25.450Z,1020.45
2017-01-08T01:12:25.423Z,1020.48
2017-01-08T01:13:25.399Z,1020.5
2017-01-08T01:14:25.370Z,1020.49
2017-01-08T01:15:25.348Z,1020.54
2017-01-08T01:16:25.321Z,1020.54
2017-01-08T01:17:25.295Z,1020.53
2017-01-08T01:18:25.267Z,1020.55
2017-01-08T01:19:25.242Z,1020.58
2017-01-08T01:20:25.214Z,1020.61
2017-01-08T01:21:25.194Z,1020.61
2017-01-08T01:22:25.170Z,1020.61
2017-01-08T01:23:25.140Z,1020.61
2017-01-08T01:24:25.113Z,1020.59
2017-01-08T01:25:25.084Z,1020.61
2017-01-08T01:26:25.059Z,1020.6
2017-01-08T01:27:25.031Z,1020.64
2017-01-08T01:28:25.008Z,1020.6
2017-01-08T01:29:24.981Z,1020.64
2017-01-08T01:30:24.958Z,1020.61
2017-01-08T01:31:24.929Z,1020.59
2017-01-08T01:32:24.904Z,1020.64
2017-01-08T01:33:24.878Z,1020.67
2017-01-08T01:34:24.848Z,1020.62
2017-01-08T01:35:24.821Z,1020.64
2017-01-08T01:36:24.797Z,1020.61
2017-01-08T01:37:24.776Z,1020.61
2017-01-08T01:38:24.747Z,1020.56
2017-01-08T01:39:24.724Z,1020.57
2017-01-08T01:40:24.695Z,1020.56
2017-01-08T01:41:24.676Z,1020.59
2017-01-08T01:42:24.642Z,1020.59
2017-01-08T01:43:24.629Z,1020.6
2017-01-08T01:44:24.593Z,1020.6
2017-01-08T01:45:24.562Z,1020.56
2017-01-08T01:46:24.542Z,1020.56
2017-01-08T01:47:24.523Z,1020.58
2017-01-08T01:48:24.484Z,1020.61
2017-01-08T01:49:24.462Z,1020.62
2017-01-08T01:50:24.442Z,1020.58
2017-01-08T01:51:24.411Z,1020.58
2017-01-08T01:52:24.443Z,1020.57
2017-01-08T01:53:24.355Z,1020.61
2017-01-08T01:54:24.326Z,1020.57
2017-01-08T01:55:24.308Z,1020.59
2017-01-08T01:56:24.278Z,1020.57
2017-01-08T01:57:24.257Z,1020.57
2017-01-08T01:58:24.232Z,1020.55
2017-01-08T01:59:24.203Z,1020.5
2017-01-08T02:00:24.173Z,1020.54
2017-01-08T02:01:24.146Z,1020.53
2017-01-08T02:02:24.124Z,1020.53
2017-01-08T02:03:24.095Z,1020.56
2017-01-08T02:04:24.124Z,1020.55
2017-01-08T02:05:24.043Z,1020.58
2017-01-08T02:06:24.021Z,1020.52
2017-01-08T02:07:24.001Z,1020.6
2017-01-08T02:08:23.969Z,1020.57
2017-01-08T02:09:23.941Z,1020.55
2017-01-08T02:10:23.964Z,1020.51
2017-01-08T02:11:23.893Z,1020.54
2017-01-08T02:12:23.919Z,1020.5
2017-01-08T02:13:23.834Z,1020.47
2017-01-08T02:14:23.808Z,1020.51
2017-01-08T02:15:23.788Z,1020.51
2017-01-08T02:16:23.757Z,1020.51
2017-01-08T02:17:23.737Z,1020.48
2017-01-08T02:18:23.706Z,1020.5
2017-01-08T02:19:23.685Z,1020.51
2017-01-08T02:20:23.655Z,1020.51
2017-01-08T02:21:23.631Z,1020.52
2017-01-08T02:22:23.599Z,1020.51
2017-01-08T02:23:23.574Z,1020.51
2017-01-08T02:24:23.552Z,1020.49
2017-01-08T02:25:23.520Z,1020.5
2017-01-08T02:26:23.500Z,1020.52
2017-01-08T02:27:23.471Z,1020.53
2017-01-08T02:28:23.446Z,1020.52
2017-01-08T02:29:23.420Z,1020.57
2017-01-08T02:30:23.399Z,1020.54
2017-01-08T02:31:23.378Z,1020.53
2017-01-08T02:32:23.338Z,1020.58
2017-01-08T02:33:23.318Z,1020.61
2017-01-08T02:34:23.287Z,1020.63
2017-01-08T02:35:23.267Z,1020.65
2017-01-08T02:36:23.236Z,1020.67
2017-01-08T02:37:23.211Z,1020.74
2017-01-08T02:38:23.184Z,1020.76
2017-01-08T02:39:23.160Z,1020.77
2017-01-08T02:40:23.131Z,1020.76
2017-01-08T02:41:23.111Z,1020.79
2017-01-08T02:42:23.078Z,1020.78
2017-01-08T02:43:23.052Z,1020.8
2017-01-08T02:44:23.029Z,1020.74
2017-01-08T02:45:22.999Z,1020.73
2017-01-08T02:46:22.979Z,1020.71
2017-01-08T02:47:22.948Z,1020.7
2017-01-08T02:48:22.923Z,1020.69
2017-01-08T02:49:22.901Z,1020.76
2017-01-08T02:50:22.876Z,1020.75
2017-01-08T02:51:22.848Z,1020.74
2017-01-08T02:52:22.869Z,1020.71
2017-01-08T02:53:22.798Z,1020.71
2017-01-08T02:54:22.772Z,1020.62
2017-01-08T02:55:22.741Z,1020.67
2017-01-08T02:56:22.715Z,1020.64
2017-01-08T02:57:22.689Z,1020.62
2017-01-08T02:58:22.660Z,1020.63
2017-01-08T02:59:22.638Z,1020.68
2017-01-08T03:00:22.614Z,1020.77
2017-01-08T03:01:22.587Z,1020.76
2017-01-08T03:02:22.560Z,1020.75
2017-01-08T03:03:22.532Z,1020.74
2017-01-08T03:04:22.512Z,1020.8
2017-01-08T03:05:22.487Z,1020.82
2017-01-08T03:06:22.457Z,1020.8
2017-01-08T03:07:22.434Z,1020.83
2017-01-08T03:08:22.404Z,1020.83
2017-01-08T03:09:22.375Z,1020.84
2017-01-08T03:10:22.351Z,1020.82
2017-01-08T03:11:22.327Z,1020.82
2017-01-08T03:12:22.299Z,1020.84
2017-01-08T03:13:22.272Z,1020.82
2017-01-08T03:14:22.249Z,1020.83
2017-01-08T03:15:22.220Z,1020.83
2017-01-08T03:16:22.197Z,1020.77
2017-01-08T03:17:22.217Z,1020.72
2017-01-08T03:18:22.144Z,1020.73
2017-01-08T03:19:22.134Z,1020.72
2017-01-08T03:20:22.094Z,1020.74
2017-01-08T03:21:22.114Z,1020.76
2017-01-08T03:22:22.041Z,1020.81
2017-01-08T03:23:22.056Z,1020.79
2017-01-08T03:24:21.992Z,1020.77
2017-01-08T03:25:22.004Z,1020.79
2017-01-08T03:26:21.936Z,1020.81
2017-01-08T03:27:21.909Z,1020.78
2017-01-08T03:28:21.891Z,1020.78
2017-01-08T03:29:21.859Z,1020.81
2017-01-08T03:30:21.835Z,1020.78
2017-01-08T03:31:21.808Z,1020.77
2017-01-08T03:32:21.780Z,1020.8
2017-01-08T03:33:21.753Z,1020.77
2017-01-08T03:34:21.732Z,1020.79
2017-01-08T03:35:21.705Z,1020.78
2017-01-08T03:36:21.674Z,1020.8
2017-01-08T03:37:21.650Z,1020.78
2017-01-08T03:38:21.623Z,1020.8
2017-01-08T03:39:21.600Z,1020.82
2017-01-08T03:40:21.571Z,1020.79
2017-01-08T03:41:21.549Z,1020.83
2017-01-08T03:42:21.520Z,1020.81
2017-01-08T03:43:21.499Z,1020.83
2017-01-08T03:44:21.469Z,1020.84
2017-01-08T03:45:21.442Z,1020.84
2017-01-08T03:46:21.421Z,1020.89
2017-01-08T03:47:21.395Z,1020.91
2017-01-08T03:48:21.365Z,1020.88
2017-01-08T03:49:21.344Z,1020.94
2017-01-08T03:50:21.315Z,1020.9
2017-01-08T03:51:21.294Z,1020.96
2017-01-08T03:52:21.271Z,1020.96
2017-01-08T03:53:21.236Z,1020.96
2017-01-08T03:54:21.210Z,1020.93
2017-01-08T03:55:21.195Z,1020.94
2017-01-08T03:56:21.161Z,1020.95
2017-01-08T03:57:21.131Z,1020.94
2017-01-08T03:58:21.111Z,1020.97
2017-01-08T03:59:21.084Z,1020.97
2017-01-08T04:00:21.060Z,1020.99
2017-01-08T04:01:21.029Z,1021.04
2017-01-08T04:02:21.007Z,1021.06
2017-01-08T04:03:20.984Z,1021.03
2017-01-08T04:04:20.952Z,1021.03
2017-01-08T04:05:20.926Z,1021.04
2017-01-08T04:06:20.907Z,1021.04
2017-01-08T04:07:20.878Z,1021.06
2017-01-08T04:08:20.849Z,1021.03
2017-01-08T04:09:20.825Z,1021.04
2017-01-08T04:10:20.803Z,1021.06
2017-01-08T04:11:20.773Z,1021.05
2017-01-08T04:12:20.753Z,1021.05
2017-01-08T04:13:20.725Z,1021.07
2017-01-08T04:14:20.698Z,1021.05
2017-01-08T04:15:20.671Z,1021.05
2017-01-08T04:16:20.650Z,1021.04
2017-01-08T04:17:20.624Z,1021.03
2017-01-08T04:18:20.595Z,1021.01
2017-01-08T04:19:20.568Z,1020.95
2017-01-08T04:20:20.551Z,1020.96
2017-01-08T04:21:20.518Z,1020.96
2017-01-08T04:22:20.546Z,1020.94
2017-01-08T04:23:20.467Z,1020.92
2017-01-08T04:24:20.446Z,1020.94
2017-01-08T04:25:20.418Z,1020.93
2017-01-08T04:26:20.395Z,1020.95
2017-01-08T04:27:20.365Z,1020.96
2017-01-08T04:28:20.345Z,1020.97
2017-01-08T04:29:20.315Z,1020.99
2017-01-08T04:30:20.293Z,1020.97
2017-01-08T04:31:20.270Z,1020.97
2017-01-08T04:32:20.343Z,1020.93
2017-01-08T04:33:20.221Z,1020.89
2017-01-08T04:34:20.192Z,1020.93
2017-01-08T04:35:20.174Z,1020.83
2017-01-08T04:36:20.141Z,1020.87
2017-01-08T04:37:20.109Z,1020.89
2017-01-08T04:38:20.141Z,1020.84
2017-01-08T04:39:20.067Z,1020.86
2017-01-08T04:40:20.035Z,1020.92
2017-01-08T04:41:20.019Z,1020.93
2017-01-08T04:42:19.985Z,1020.93
2017-01-08T04:43:19.960Z,1020.91
2017-01-08T04:44:19.934Z,1020.92
2017-01-08T04:45:19.909Z,1020.94
2017-01-08T04:46:19.888Z,1020.95
2017-01-08T04:47:19.858Z,1020.99
2017-01-08T04:48:19.836Z,1021.01
2017-01-08T04:49:19.811Z,1021.03
2017-01-08T04:50:19.783Z,1021.02
2017-01-08T04:51:19.755Z,1021.04
2017-01-08T04:52:19.730Z,1021.1
2017-01-08T04:53:19.712Z,1021.1
2017-01-08T04:54:19.682Z,1021.17
2017-01-08T04:55:19.656Z,1021.1
2017-01-08T04:56:19.631Z,1021.1
2017-01-08T04:57:19.604Z,1021.11
2017-01-08T04:58:19.581Z,1021.07
2017-01-08T04:59:19.554Z,1021.06
2017-01-08T05:00:19.531Z,1021.06
2017-01-08T05:01:19.510Z,1021.08
2017-01-08T05:02:19.479Z,1021.14
2017-01-08T05:03:19.458Z,1021.11
2017-01-08T05:04:19.428Z,1021.06
2017-01-08T05:05:19.400Z,1021.11
2017-01-08T05:06:19.378Z,1021.1
2017-01-08T05:07:19.360Z,1021.12
2017-01-08T05:08:19.327Z,1021.12
2017-01-08T05:09:19.299Z,1021.16
2017-01-08T05:10:19.275Z,1021.13
2017-01-08T05:11:19.248Z,1021.17
2017-01-08T05:12:19.225Z,1021.17
2017-01-08T05:13:19.200Z,1021.16
2017-01-08T05:14:19.173Z,1021.17
2017-01-08T05:15:19.150Z,1021.18
2017-01-08T05:16:19.122Z,1021.14
2017-01-08T05:17:19.110Z,1021.11
2017-01-08T05:18:19.071Z,1021.15
2017-01-08T05:19:19.050Z,1021.14
2017-01-08T05:20:19.021Z,1021.13
2017-01-08T05:21:18.999Z,1021.13
2017-01-08T05:22:18.969Z,1021.1
2017-01-08T05:23:18.949Z,1021.12
2017-01-08T05:24:18.924Z,1021.11
2017-01-08T05:25:18.898Z,1021.1
2017-01-08T05:26:18.877Z,1021.08
2017-01-08T05:27:18.847Z,1021.05
2017-01-08T05:28:18.819Z,1021.11
2017-01-08T05:29:18.796Z,1021.03
2017-01-08T05:30:18.767Z,1021.09
2017-01-08T05:31:18.745Z,1021.1
2017-01-08T05:32:18.717Z,1021.13
2017-01-08T05:33:18.693Z,1021.06
2017-01-08T05:34:18.671Z,1021.03
2017-01-08T05:35:18.642Z,1021.09
2017-01-08T05:36:18.617Z,1021.09
2017-01-08T05:37:18.592Z,1021.11
2017-01-08T05:38:18.571Z,1021.08
2017-01-08T05:39:18.538Z,1021.05
2017-01-08T05:40:18.519Z,1021.01
2017-01-08T05:41:18.489Z,1021.02
2017-01-08T05:42:18.468Z,1021.02
2017-01-08T05:43:18.442Z,1021.07
2017-01-08T05:44:18.417Z,1021.07
2017-01-08T05:45:18.391Z,1021.12
2017-01-08T05:46:18.366Z,1021.15
2017-01-08T05:47:18.392Z,1021.14
2017-01-08T05:48:18.315Z,1021.19
2017-01-08T05:49:18.289Z,1021.16
2017-01-08T05:50:18.265Z,1021.14
2017-01-08T05:51:18.256Z,1021.16
2017-01-08T05:52:18.208Z,1021.15
2017-01-08T05:53:18.188Z,1021.15
2017-01-08T05:54:18.159Z,1021.17
2017-01-08T05:55:18.138Z,1021.18
2017-01-08T05:56:18.112Z,1021.26
2017-01-08T05:57:18.082Z,1021.26
2017-01-08T05:58:18.060Z,1021.33
2017-01-08T05:59:18.035Z,1021.34
2017-01-08T06:00:18.009Z,1021.36
2017-01-08T06:01:17.985Z,1021.36
2017-01-08T06:02:17.956Z,1021.41
2017-01-08T06:03:17.932Z,1021.4
2017-01-08T06:04:17.910Z,1021.41
2017-01-08T06:05:17.886Z,1021.35
2017-01-08T06:06:17.864Z,1021.32
2017-01-08T06:07:17.838Z,1021.36
2017-01-08T06:08:17.806Z,1021.42
2017-01-08T06:09:17.786Z,1021.42
2017-01-08T06:10:17.760Z,1021.42
2017-01-08T06:11:17.733Z,1021.45
2017-01-08T06:12:17.714Z,1021.48
2017-01-08T06:13:17.681Z,1021.51
2017-01-08T06:14:17.657Z,1021.48
2017-01-08T06:15:17.631Z,1021.45
2017-01-08T06:16:17.609Z,1021.52
2017-01-08T06:17:17.582Z,1021.53
2017-01-08T06:18:17.561Z,1021.58
2017-01-08T06:19:17.531Z,1021.57
2017-01-08T06:20:17.507Z,1021.59
2017-01-08T06:21:17.480Z,1021.59
2017-01-08T06:22:17.456Z,1021.6
2017-01-08T06:23:17.429Z,1021.56
2017-01-08T06:24:17.405Z,1021.59
2017-01-08T06:25:17.381Z,1021.56
2017-01-08T06:26:17.359Z,1021.55
2017-01-08T06:27:17.333Z,1021.58
2017-01-08T06:28:17.305Z,1021.6
2017-01-08T06:29:17.279Z,1021.61
2017-01-08T06:30:17.255Z,1021.64
2017-01-08T06:31:17.228Z,1021.68
2017-01-08T06:32:17.203Z,1021.64
2017-01-08T06:33:17.185Z,1021.64
2017-01-08T06:34:17.153Z,1021.69
2017-01-08T06:35:17.132Z,1021.64
2017-01-08T06:36:17.114Z,1021.69
2017-01-08T06:37:17.082Z,1021.68
2017-01-08T06:38:17.051Z,1021.67
2017-01-08T06:39:17.030Z,1021.73
2017-01-08T06:40:17.002Z,1021.73
2017-01-08T06:41:16.981Z,1021.8
2017-01-08T06:42:16.964Z,1021.8
2017-01-08T06:43:16.931Z,1021.8
2017-01-08T06:44:16.900Z,1021.8
2017-01-08T06:45:16.882Z,1021.8
2017-01-08T06:46:16.849Z,1021.78
2017-01-08T06:47:16.827Z,1021.79
2017-01-08T06:48:16.805Z,1021.79
2017-01-08T06:49:16.778Z,1021.79
2017-01-08T06:50:16.754Z,1021.78
2017-01-08T06:51:16.728Z,1021.81
2017-01-08T06:52:16.704Z,1021.78
2017-01-08T06:53:16.680Z,1021.81
2017-01-08T06:54:16.650Z,1021.84
2017-01-08T06:55:16.634Z,1021.85
2017-01-08T06:56:16.605Z,1021.87
2017-01-08T06:57:16.584Z,1021.87
2017-01-08T06:58:16.559Z,1021.87
2017-01-08T06:59:16.531Z,1021.88
2017-01-08T07:00:16.503Z,1021.85
2017-01-08T07:01:16.481Z,1021.93
2017-01-08T07:02:16.453Z,1021.91
2017-01-08T07:03:16.428Z,1021.94
2017-01-08T07:04:16.402Z,1021.95
2017-01-08T07:05:16.412Z,1021.97
2017-01-08T07:06:16.401Z,1022.03
2017-01-08T07:07:16.325Z,1021.97
2017-01-08T07:08:16.359Z,1022
2017-01-08T07:09:16.280Z,1022.02
2017-01-08T07:10:16.257Z,1022.04
2017-01-08T07:11:16.232Z,1022.12
2017-01-08T07:12:16.206Z,1022.08
2017-01-08T07:13:16.175Z,1022.08
2017-01-08T07:14:16.153Z,1022.1
2017-01-08T07:15:16.126Z,1022.06
2017-01-08T07:16:16.105Z,1022.09
2017-01-08T07:17:16.075Z,1022.08
2017-01-08T07:18:16.049Z,1022.09
2017-01-08T07:19:16.023Z,1022.11
2017-01-08T07:20:15.999Z,1022.13
2017-01-08T07:21:15.972Z,1022.12
2017-01-08T07:22:15.951Z,1022.17
2017-01-08T07:23:15.921Z,1022.15
2017-01-08T07:24:15.901Z,1022.17
2017-01-08T07:25:15.883Z,1022.2
2017-01-08T07:26:15.872Z,1022.21
2017-01-08T07:27:15.830Z,1022.22
2017-01-08T07:28:15.799Z,1022.24
2017-01-08T07:29:15.773Z,1022.28
2017-01-08T07:30:15.748Z,1022.31
2017-01-08T07:31:15.726Z,1022.28
2017-01-08T07:32:15.694Z,1022.26
2017-01-08T07:33:15.673Z,1022.32
2017-01-08T07:34:15.657Z,1022.36
2017-01-08T07:35:15.624Z,1022.34
2017-01-08T07:36:15.595Z,1022.37
2017-01-08T07:37:15.573Z,1022.38
2017-01-08T07:38:15.548Z,1022.38
2017-01-08T07:39:15.522Z,1022.44
2017-01-08T07:40:15.501Z,1022.41
2017-01-08T07:41:15.471Z,1022.42
2017-01-08T07:42:15.444Z,1022.4
2017-01-08T07:43:15.420Z,1022.42
2017-01-08T07:44:15.398Z,1022.43
2017-01-08T07:45:15.380Z,1022.47
2017-01-08T07:46:15.342Z,1022.47
2017-01-08T07:47:15.332Z,1022.44
2017-01-08T07:48:15.294Z,1022.5
2017-01-08T07:49:15.275Z,1022.53
2017-01-08T07:50:15.245Z,1022.53
2017-01-08T07:51:15.227Z,1022.52
2017-01-08T07:52:15.194Z,1022.56
2017-01-08T07:53:15.175Z,1022.61
2017-01-08T07:54:15.144Z,1022.61
2017-01-08T07:55:15.124Z,1022.6
2017-01-08T07:56:15.093Z,1022.61
2017-01-08T07:57:15.073Z,1022.6
2017-01-08T07:58:15.044Z,1022.62
2017-01-08T07:59:15.018Z,1022.61
2017-01-08T08:00:14.994Z,1022.64
2017-01-08T08:01:14.972Z,1022.69
2017-01-08T08:02:14.950Z,1022.65
2017-01-08T08:03:14.921Z,1022.66
2017-01-08T08:04:14.895Z,1022.66
2017-01-08T08:05:14.878Z,1022.67
2017-01-08T08:06:14.840Z,1022.68
2017-01-08T08:07:14.826Z,1022.75
2017-01-08T08:08:14.794Z,1022.74
2017-01-08T08:09:14.774Z,1022.76
2017-01-08T08:10:14.744Z,1022.75
2017-01-08T08:11:14.719Z,1022.74
2017-01-08T08:12:14.695Z,1022.73
2017-01-08T08:13:14.668Z,1022.75
2017-01-08T08:14:14.641Z,1022.73
2017-01-08T08:15:14.615Z,1022.72
2017-01-08T08:16:14.591Z,1022.8
2017-01-08T08:17:14.566Z,1022.76
2017-01-08T08:18:14.540Z,1022.81
2017-01-08T08:19:14.515Z,1022.78
2017-01-08T08:20:14.488Z,1022.82
2017-01-08T08:21:14.463Z,1022.85
2017-01-08T08:22:14.446Z,1022.88
2017-01-08T08:23:14.416Z,1022.84
2017-01-08T08:24:14.396Z,1022.83
2017-01-08T08:25:14.364Z,1022.84
2017-01-08T08:26:14.343Z,1022.87
2017-01-08T08:27:14.311Z,1022.88
2017-01-08T08:28:14.292Z,1022.93
2017-01-08T08:29:14.271Z,1022.91
2017-01-08T08:30:14.241Z,1022.94
2017-01-08T08:31:14.220Z,1022.95
2017-01-08T08:32:14.190Z,1022.98
2017-01-08T08:33:14.168Z,1022.99
2017-01-08T08:34:14.138Z,1022.94
2017-01-08T08:35:14.111Z,1022.96
2017-01-08T08:36:14.092Z,1022.94
2017-01-08T08:37:14.065Z,1022.89
2017-01-08T08:38:14.035Z,1022.89
2017-01-08T08:39:14.014Z,1022.89
2017-01-08T08:40:13.987Z,1022.91
2017-01-08T08:41:13.963Z,1022.94
2017-01-08T08:42:13.945Z,1022.88
2017-01-08T08:43:13.913Z,1022.97
2017-01-08T08:44:13.894Z,1022.95
2017-01-08T08:45:13.862Z,1022.99
2017-01-08T08:46:13.841Z,1022.98
2017-01-08T08:47:13.820Z,1022.99
2017-01-08T08:48:13.789Z,1023.02
2017-01-08T08:49:13.766Z,1023.02
2017-01-08T08:50:13.738Z,1023.06
2017-01-08T08:51:13.713Z,1023.05
2017-01-08T08:52:13.687Z,1023.07
2017-01-08T08:53:13.666Z,1023.05
2017-01-08T08:54:13.639Z,1023.01
2017-01-08T08:55:13.612Z,1023.05
2017-01-08T08:56:13.595Z,1023.07
2017-01-08T08:57:13.564Z,1023.07
2017-01-08T08:58:13.548Z,1023.07
2017-01-08T08:59:13.513Z,1023.1
2017-01-08T09:00:13.492Z,1023.08
2017-01-08T09:01:13.463Z,1023.14
2017-01-08T09:02:13.440Z,1023.12
2017-01-08T09:03:13.419Z,1023.15
2017-01-08T09:04:13.386Z,1023.18
2017-01-08T09:05:13.371Z,1023.22
2017-01-08T09:06:13.338Z,1023.17
2017-01-08T09:07:13.314Z,1023.2
2017-01-08T09:08:13.287Z,1023.2
2017-01-08T09:09:13.265Z,1023.2
2017-01-08T09:10:13.244Z,1023.2
2017-01-08T09:11:13.219Z,1023.18
2017-01-08T09:12:13.189Z,1023.2
2017-01-08T09:13:13.164Z,1023.16
2017-01-08T09:14:13.139Z,1023.17
2017-01-08T09:15:13.116Z,1023.16
2017-01-08T09:16:13.095Z,1023.18
2017-01-08T09:17:13.062Z,1023.23
2017-01-08T09:18:13.041Z,1023.24
2017-01-08T09:19:13.016Z,1023.27
2017-01-08T09:20:12.990Z,1023.31
2017-01-08T09:21:12.966Z,1023.29
2017-01-08T09:22:12.940Z,1023.34
2017-01-08T09:23:12.911Z,1023.34
2017-01-08T09:24:12.887Z,1023.33
2017-01-08T09:25:12.867Z,1023.35
2017-01-08T09:26:12.841Z,1023.36
2017-01-08T09:27:12.817Z,1023.37
2017-01-08T09:28:12.792Z,1023.4
2017-01-08T09:29:12.767Z,1023.39
2017-01-08T09:30:12.737Z,1023.42
2017-01-08T09:31:12.714Z,1023.41
2017-01-08T09:32:12.690Z,1023.44
2017-01-08T09:33:12.665Z,1023.44
2017-01-08T09:34:12.642Z,1023.45
2017-01-08T09:35:12.614Z,1023.44
2017-01-08T09:36:12.592Z,1023.49
2017-01-08T09:37:12.564Z,1023.5
2017-01-08T09:38:12.541Z,1023.5
2017-01-08T09:39:12.517Z,1023.49
2017-01-08T09:40:12.490Z,1023.52
2017-01-08T09:41:12.468Z,1023.48
2017-01-08T09:42:12.440Z,1023.5
2017-01-08T09:43:12.419Z,1023.51
2017-01-08T09:44:12.390Z,1023.49
2017-01-08T09:45:12.364Z,1023.53
2017-01-08T09:46:12.343Z,1023.52
2017-01-08T09:47:12.321Z,1023.48
2017-01-08T09:48:12.308Z,1023.49
2017-01-08T09:49:12.266Z,1023.46
2017-01-08T09:50:12.241Z,1023.5
2017-01-08T09:51:12.225Z,1023.53
2017-01-08T09:52:12.190Z,1023.52
2017-01-08T09:53:12.173Z,1023.56
2017-01-08T09:54:12.150Z,1023.55
2017-01-08T09:55:12.117Z,1023.55
2017-01-08T09:56:12.094Z,1023.57
2017-01-08T09:57:12.072Z,1023.61
2017-01-08T09:58:12.057Z,1023.62
2017-01-08T09:59:12.020Z,1023.66
2017-01-08T10:00:12.000Z,1023.7
2017-01-08T10:01:11.971Z,1023.68
2017-01-08T10:02:11.944Z,1023.69
2017-01-08T10:03:11.919Z,1023.69
2017-01-08T10:04:11.897Z,1023.73
2017-01-08T10:05:11.869Z,1023.67
2017-01-08T10:06:11.843Z,1023.76
2017-01-08T10:07:11.821Z,1023.72
2017-01-08T10:08:11.799Z,1023.68
2017-01-08T10:09:11.770Z,1023.69
2017-01-08T10:10:11.759Z,1023.7
2017-01-08T10:11:11.721Z,1023.72
2017-01-08T10:12:11.707Z,1023.66
2017-01-08T10:13:11.672Z,1023.69
2017-01-08T10:14:11.649Z,1023.69
2017-01-08T10:15:11.621Z,1023.7
2017-01-08T10:16:11.601Z,1023.76
2017-01-08T10:17:11.574Z,1023.78
2017-01-08T10:18:11.550Z,1023.8
2017-01-08T10:19:11.529Z,1023.82
2017-01-08T10:20:11.498Z,1023.84
2017-01-08T10:21:11.476Z,1023.87
2017-01-08T10:22:11.446Z,1023.87
2017-01-08T10:23:11.430Z,1023.88
2017-01-08T10:24:11.396Z,1023.85
2017-01-08T10:25:11.376Z,1023.85
2017-01-08T10:26:11.353Z,1023.82
2017-01-08T10:27:11.324Z,1023.81
2017-01-08T10:28:11.303Z,1023.81
2017-01-08T10:29:11.276Z,1023.81
2017-01-08T10:30:11.252Z,1023.79
2017-01-08T10:31:11.228Z,1023.81
2017-01-08T10:32:11.201Z,1023.8
2017-01-08T10:33:11.175Z,1023.77
2017-01-08T10:34:11.149Z,1023.76
2017-01-08T10:35:11.129Z,1023.81
2017-01-08T10:36:11.099Z,1023.82
2017-01-08T10:37:11.079Z,1023.83
2017-01-08T10:38:11.059Z,1023.87
2017-01-08T10:39:11.028Z,1023.89
2017-01-08T10:40:11.006Z,1023.87
2017-01-08T10:41:10.979Z,1023.88
2017-01-08T10:42:10.956Z,1023.87
2017-01-08T10:43:10.926Z,1023.92
2017-01-08T10:44:10.903Z,1023.89
2017-01-08T10:45:10.881Z,1023.88
2017-01-08T10:46:10.855Z,1023.84
2017-01-08T10:47:10.842Z,1023.83
2017-01-08T10:48:10.801Z,1023.89
2017-01-08T10:49:10.784Z,1023.87
2017-01-08T10:50:10.753Z,1023.87
2017-01-08T10:51:10.732Z,1023.91
2017-01-08T10:52:10.702Z,1023.93
2017-01-08T10:53:10.680Z,1023.96
2017-01-08T10:54:10.656Z,1023.97
2017-01-08T10:55:10.636Z,1023.95
2017-01-08T10:56:10.606Z,1024.01
2017-01-08T10:57:10.577Z,1023.99
2017-01-08T10:58:10.558Z,1024.01
2017-01-08T10:59:10.531Z,1024.02
2017-01-08T11:00:10.507Z,1023.97
2017-01-08T11:01:10.490Z,1024.02
2017-01-08T11:02:10.458Z,1023.96
2017-01-08T11:03:10.435Z,1023.95
2017-01-08T11:04:10.404Z,1023.96
2017-01-08T11:05:10.394Z,1023.98
2017-01-08T11:06:10.355Z,1024.08
2017-01-08T11:07:10.334Z,1024.08
2017-01-08T11:08:10.310Z,1024.1
2017-01-08T11:09:10.283Z,1024.17
2017-01-08T11:10:10.256Z,1024.2
2017-01-08T11:11:10.234Z,1024.22
2017-01-08T11:12:10.207Z,1024.2
2017-01-08T11:13:10.181Z,1024.19
2017-01-08T11:14:10.159Z,1024.18
2017-01-08T11:15:10.139Z,1024.19
2017-01-08T11:16:10.109Z,1024.21
2017-01-08T11:17:10.087Z,1024.23
2017-01-08T11:18:10.059Z,1024.24
2017-01-08T11:19:10.036Z,1024.23
2017-01-08T11:20:10.006Z,1024.24
2017-01-08T11:21:09.993Z,1024.23
2017-01-08T11:22:09.964Z,1024.26
2017-01-08T11:23:09.934Z,1024.26
2017-01-08T11:24:09.924Z,1024.22
2017-01-08T11:25:09.889Z,1024.25
2017-01-08T11:26:09.868Z,1024.29
2017-01-08T11:27:09.835Z,1024.28
2017-01-08T11:28:09.810Z,1024.28
2017-01-08T11:29:09.785Z,1024.26
2017-01-08T11:30:09.766Z,1024.29
2017-01-08T11:31:09.740Z,1024.3
2017-01-08T11:32:09.720Z,1024.27
2017-01-08T11:33:09.690Z,1024.3
2017-01-08T11:34:09.664Z,1024.28
2017-01-08T11:35:09.647Z,1024.26
2017-01-08T11:36:09.615Z,1024.27
2017-01-08T11:37:09.599Z,1024.28
2017-01-08T11:38:09.566Z,1024.25
2017-01-08T11:39:09.542Z,1024.23
2017-01-08T11:40:09.517Z,1024.27
2017-01-08T11:41:09.496Z,1024.23
2017-01-08T11:42:09.475Z,1024.21
2017-01-08T11:43:09.447Z,1024.19
2017-01-08T11:44:09.421Z,1024.17
2017-01-08T11:45:09.395Z,1024.18
2017-01-08T11:46:09.371Z,1024.2
2017-01-08T11:47:09.352Z,1024.13
2017-01-08T11:48:09.322Z,1024.15
2017-01-08T11:49:09.299Z,1024.13
2017-01-08T11:50:09.274Z,1024.15
2017-01-08T11:51:09.250Z,1024.16
2017-01-08T11:52:09.229Z,1024.15
2017-01-08T11:53:09.199Z,1024.19
2017-01-08T11:54:09.176Z,1024.15
2017-01-08T11:55:09.147Z,1024.18
2017-01-08T11:56:09.130Z,1024.2
2017-01-08T11:57:09.109Z,1024.18
2017-01-08T11:58:09.080Z,1024.18
2017-01-08T11:59:09.051Z,1024.2
2017-01-08T12:00:09.026Z,1024.18
2017-01-08T12:01:09.005Z,1024.26
2017-01-08T12:02:08.986Z,1024.23
2017-01-08T12:03:08.954Z,1024.24
2017-01-08T12:04:08.934Z,1024.24
2017-01-08T12:05:08.917Z,1024.22
2017-01-08T12:06:08.883Z,1024.23
2017-01-08T12:07:08.857Z,1024.21